sensor_id;sensor_type;location;lat;lon;timestamp;pressure;altitude;pressure_sealevel;temperature;humidity
50710;BME280;37033;49.994;21.992;2023-04-28T00:01:17;99789.06;;;2.50;68.75
50710;BME280;37033;49.994;21.992;2023-04-28T00:03:48;99786.56;;;2.48;68.82
50710;BME280;37033;49.994;21.992;2023-04-28T00:06:18;99788.76;;;2.46;68.74
50710;BME280;37033;49.994;21.992;2023-04-28T00:08:49;99789.60;;;2.44;68.74
50710;BME280;37033;49.994;21.992;2023-04-28T00:11:20;99787.95;;;2.41;68.85
50710;BME280;37033;49.994;21.992;2023-04-28T00:13:50;99787.65;;;2.37;68.73
50710;BME280;37033;49.994;21.992;2023-04-28T00:16:21;99787.44;;;2.33;68.98
50710;BME280;37033;49.994;21.992;2023-04-28T00:18:52;99783.05;;;2.29;68.77
50710;BME280;37033;49.994;21.992;2023-04-28T00:21:22;99789.23;;;2.25;68.93
50710;BME280;37033;49.994;21.992;2023-04-28T00:23:53;99786.79;;;2.22;68.99
50710;BME280;37033;49.994;21.992;2023-04-28T00:26:24;99787.64;;;2.17;69.08
50710;BME280;37033;49.994;21.992;2023-04-28T00:28:55;99790.66;;;2.11;69.01
50710;BME280;37033;49.994;21.992;2023-04-28T00:31:25;99787.19;;;2.04;69.36
50710;BME280;37033;49.994;21.992;2023-04-28T00:33:56;99789.43;;;1.97;69.54
50710;BME280;37033;49.994;21.992;2023-04-28T00:36:27;99791.73;;;1.92;69.59
50710;BME280;37033;49.994;21.992;2023-04-28T00:39:00;99787.77;;;1.90;69.74
50710;BME280;37033;49.994;21.992;2023-04-28T00:41:33;99789.48;;;1.87;69.99
50710;BME280;37033;49.994;21.992;2023-04-28T00:44:04;99791.45;;;1.84;69.97
50710;BME280;37033;49.994;21.992;2023-04-28T00:46:34;99796.29;;;1.81;69.97
50710;BME280;37033;49.994;21.992;2023-04-28T00:49:05;99796.70;;;1.77;70.20
50710;BME280;37033;49.994;21.992;2023-04-28T00:51:36;99796.56;;;1.72;70.54
50710;BME280;37033;49.994;21.992;2023-04-28T00:54:07;99800.92;;;1.68;70.74
50710;BME280;37033;49.994;21.992;2023-04-28T00:56:38;99803.89;;;1.66;70.66
50710;BME280;37033;49.994;21.992;2023-04-28T00:59:09;99802.73;;;1.62;70.67
50710;BME280;37033;49.994;21.992;2023-04-28T01:01:40;99799.05;;;1.58;71.29
50710;BME280;37033;49.994;21.992;2023-04-28T01:04:10;99802.39;;;1.55;71.37
50710;BME280;37033;49.994;21.992;2023-04-28T01:06:42;99798.65;;;1.52;71.58
50710;BME280;37033;49.994;21.992;2023-04-28T01:09:13;99804.13;;;1.51;71.60
50710;BME280;37033;49.994;21.992;2023-04-28T01:11:44;99805.15;;;1.50;71.51
50710;BME280;37033;49.994;21.992;2023-04-28T01:14:14;99807.12;;;1.50;71.66
50710;BME280;37033;49.994;21.992;2023-04-28T01:16:45;99807.53;;;1.49;71.70
50710;BME280;37033;49.994;21.992;2023-04-28T01:19:20;99808.33;;;1.50;71.60
50710;BME280;37033;49.994;21.992;2023-04-28T01:21:51;99805.04;;;1.49;71.70
50710;BME280;37033;49.994;21.992;2023-04-28T01:24:22;99806.66;;;1.47;71.72
50710;BME280;37033;49.994;21.992;2023-04-28T01:26:53;99807.41;;;1.46;71.69
50710;BME280;37033;49.994;21.992;2023-04-28T01:29:23;99804.36;;;1.44;71.56
50710;BME280;37033;49.994;21.992;2023-04-28T01:31:54;99804.38;;;1.41;71.76
50710;BME280;37033;49.994;21.992;2023-04-28T01:34:25;99805.48;;;1.35;71.71
50710;BME280;37033;49.994;21.992;2023-04-28T01:36:56;99805.20;;;1.32;71.90
50710;BME280;37033;49.994;21.992;2023-04-28T01:39:27;99801.09;;;1.28;72.06
50710;BME280;37033;49.994;21.992;2023-04-28T01:41:58;99805.98;;;1.25;72.04
50710;BME280;37033;49.994;21.992;2023-04-28T01:44:28;99802.67;;;1.22;72.35
50710;BME280;37033;49.994;21.992;2023-04-28T01:46:59;99804.89;;;1.20;72.47
50710;BME280;37033;49.994;21.992;2023-04-28T01:49:30;99802.55;;;1.19;72.36
50710;BME280;37033;49.994;21.992;2023-04-28T01:52:00;99801.71;;;1.18;72.56
50710;BME280;37033;49.994;21.992;2023-04-28T01:54:31;99801.94;;;1.17;72.67
50710;BME280;37033;49.994;21.992;2023-04-28T01:57:02;99799.77;;;1.18;72.85
50710;BME280;37033;49.994;21.992;2023-04-28T01:59:33;99798.66;;;1.18;72.93
50710;BME280;37033;49.994;21.992;2023-04-28T02:02:03;99798.23;;;1.17;72.89
50710;BME280;37033;49.994;21.992;2023-04-28T02:04:34;99799.44;;;1.16;73.11
50710;BME280;37033;49.994;21.992;2023-04-28T02:07:07;99798.64;;;1.15;72.89
50710;BME280;37033;49.994;21.992;2023-04-28T02:09:37;99800.95;;;1.14;73.09
50710;BME280;37033;49.994;21.992;2023-04-28T02:12:08;99798.61;;;1.11;73.34
50710;BME280;37033;49.994;21.992;2023-04-28T02:14:38;99798.82;;;1.07;73.29
50710;BME280;37033;49.994;21.992;2023-04-28T02:17:09;99802.37;;;1.04;73.40
50710;BME280;37033;49.994;21.992;2023-04-28T02:19:40;99804.26;;;1.02;73.36
50710;BME280;37033;49.994;21.992;2023-04-28T02:22:10;99801.52;;;0.99;73.57
50710;BME280;37033;49.994;21.992;2023-04-28T02:24:41;99803.91;;;0.98;73.53
50710;BME280;37033;49.994;21.992;2023-04-28T02:27:12;99803.12;;;0.97;73.32
50710;BME280;37033;49.994;21.992;2023-04-28T02:29:43;99808.71;;;0.96;73.41
50710;BME280;37033;49.994;21.992;2023-04-28T02:32:14;99809.84;;;0.96;73.38
50710;BME280;37033;49.994;21.992;2023-04-28T02:34:44;99815.67;;;0.93;73.71
50710;BME280;37033;49.994;21.992;2023-04-28T02:37:15;99816.77;;;0.91;73.36
50710;BME280;37033;49.994;21.992;2023-04-28T02:39:46;99816.56;;;0.90;73.36
50710;BME280;37033;49.994;21.992;2023-04-28T02:42:16;99821.80;;;0.88;73.27
50710;BME280;37033;49.994;21.992;2023-04-28T02:44:47;99819.48;;;0.86;73.41
50710;BME280;37033;49.994;21.992;2023-04-28T02:47:18;99817.38;;;0.84;73.44
50710;BME280;37033;49.994;21.992;2023-04-28T02:49:49;99816.11;;;0.81;73.30
50710;BME280;37033;49.994;21.992;2023-04-28T02:52:20;99817.58;;;0.79;73.66
50710;BME280;37033;49.994;21.992;2023-04-28T02:54:50;99817.74;;;0.77;73.59
50710;BME280;37033;49.994;21.992;2023-04-28T02:57:25;99821.16;;;0.76;73.48
50710;BME280;37033;49.994;21.992;2023-04-28T02:59:56;99819.68;;;0.74;73.58
50710;BME280;37033;49.994;21.992;2023-04-28T03:02:26;99824.94;;;0.72;73.77
50710;BME280;37033;49.994;21.992;2023-04-28T03:04:57;99826.98;;;0.70;73.84
50710;BME280;37033;49.994;21.992;2023-04-28T03:07:28;99827.98;;;0.67;73.82
50710;BME280;37033;49.994;21.992;2023-04-28T03:09:58;99828.79;;;0.66;73.95
50710;BME280;37033;49.994;21.992;2023-04-28T03:12:29;99832.06;;;0.64;74.07
50710;BME280;37033;49.994;21.992;2023-04-28T03:15:00;99838.52;;;0.62;74.29
50710;BME280;37033;49.994;21.992;2023-04-28T03:17:30;99835.80;;;0.63;74.09
50710;BME280;37033;49.994;21.992;2023-04-28T03:20:01;99842.06;;;0.62;74.19
50710;BME280;37033;49.994;21.992;2023-04-28T03:22:32;99840.48;;;0.62;74.23
50710;BME280;37033;49.994;21.992;2023-04-28T03:25:04;99838.94;;;0.63;74.21
50710;BME280;37033;49.994;21.992;2023-04-28T03:27:35;99843.20;;;0.64;74.21
50710;BME280;37033;49.994;21.992;2023-04-28T03:30:07;99848.41;;;0.63;74.27
50710;BME280;37033;49.994;21.992;2023-04-28T03:32:38;99848.62;;;0.63;74.33
50710;BME280;37033;49.994;21.992;2023-04-28T03:35:09;99850.48;;;0.64;74.32
50710;BME280;37033;49.994;21.992;2023-04-28T03:37:40;99853.73;;;0.63;74.47
50710;BME280;37033;49.994;21.992;2023-04-28T03:40:12;99850.05;;;0.65;74.61
50710;BME280;37033;49.994;21.992;2023-04-28T03:42:42;99849.98;;;0.63;74.53
50710;BME280;37033;49.994;21.992;2023-04-28T03:45:13;99854.58;;;0.62;74.47
50710;BME280;37033;49.994;21.992;2023-04-28T03:47:44;99851.79;;;0.62;74.69
50710;BME280;37033;49.994;21.992;2023-04-28T03:50:14;99853.63;;;0.61;74.75
50710;BME280;37033;49.994;21.992;2023-04-28T03:52:45;99854.14;;;0.63;74.81
50710;BME280;37033;49.994;21.992;2023-04-28T03:55:16;99855.41;;;0.66;74.98
50710;BME280;37033;49.994;21.992;2023-04-28T03:57:47;99856.52;;;0.67;74.90
50710;BME280;37033;49.994;21.992;2023-04-28T04:00:18;99859.02;;;0.69;75.13
50710;BME280;37033;49.994;21.992;2023-04-28T04:02:49;99858.61;;;0.69;75.07
50710;BME280;37033;49.994;21.992;2023-04-28T04:05:20;99857.81;;;0.70;75.13
50710;BME280;37033;49.994;21.992;2023-04-28T04:07:50;99857.52;;;0.71;75.15
50710;BME280;37033;49.994;21.992;2023-04-28T04:10:21;99860.19;;;0.73;75.22
50710;BME280;37033;49.994;21.992;2023-04-28T04:12:52;99862.80;;;0.73;75.34
50710;BME280;37033;49.994;21.992;2023-04-28T04:15:23;99860.92;;;0.74;75.47
50710;BME280;37033;49.994;21.992;2023-04-28T04:17:54;99855.91;;;0.76;75.32
50710;BME280;37033;49.994;21.992;2023-04-28T04:20:24;99854.88;;;0.77;75.26
50710;BME280;37033;49.994;21.992;2023-04-28T04:22:55;99863.30;;;0.78;75.22
50710;BME280;37033;49.994;21.992;2023-04-28T04:25:26;99864.37;;;0.80;75.34
50710;BME280;37033;49.994;21.992;2023-04-28T04:27:56;99864.42;;;0.83;75.46
50710;BME280;37033;49.994;21.992;2023-04-28T04:30:27;99866.09;;;0.86;75.41
50710;BME280;37033;49.994;21.992;2023-04-28T04:32:58;99864.17;;;0.89;75.57
50710;BME280;37033;49.994;21.992;2023-04-28T04:35:29;99865.55;;;0.92;75.73
50710;BME280;37033;49.994;21.992;2023-04-28T04:38:01;99866.55;;;0.96;75.73
50710;BME280;37033;49.994;21.992;2023-04-28T04:40:32;99866.86;;;1.02;75.70
50710;BME280;37033;49.994;21.992;2023-04-28T04:43:03;99869.16;;;1.07;75.78
50710;BME280;37033;49.994;21.992;2023-04-28T04:45:33;99868.52;;;1.13;75.96
50710;BME280;37033;49.994;21.992;2023-04-28T04:48:04;99873.43;;;1.20;75.70
50710;BME280;37033;49.994;21.992;2023-04-28T04:50:35;99877.20;;;1.23;75.98
50710;BME280;37033;49.994;21.992;2023-04-28T04:53:06;99875.14;;;1.26;75.85
50710;BME280;37033;49.994;21.992;2023-04-28T04:55:37;99873.59;;;1.28;75.83
50710;BME280;37033;49.994;21.992;2023-04-28T04:58:08;99873.86;;;1.32;75.98
50710;BME280;37033;49.994;21.992;2023-04-28T05:00:39;99872.99;;;1.35;75.86
50710;BME280;37033;49.994;21.992;2023-04-28T05:03:11;99875.09;;;1.37;75.63
50710;BME280;37033;49.994;21.992;2023-04-28T05:05:41;99874.69;;;1.41;75.76
50710;BME280;37033;49.994;21.992;2023-04-28T05:08:13;99879.23;;;1.45;75.76
50710;BME280;37033;49.994;21.992;2023-04-28T05:10:44;99877.81;;;1.51;76.20
50710;BME280;37033;49.994;21.992;2023-04-28T05:13:14;99876.60;;;1.56;76.00
50710;BME280;37033;49.994;21.992;2023-04-28T05:15:45;99876.39;;;1.63;76.09
50710;BME280;37033;49.994;21.992;2023-04-28T05:18:16;99872.43;;;1.72;76.28
50710;BME280;37033;49.994;21.992;2023-04-28T05:20:47;99876.27;;;1.86;76.57
50710;BME280;37033;49.994;21.992;2023-04-28T05:23:17;99873.52;;;2.00;76.30
50710;BME280;37033;49.994;21.992;2023-04-28T05:25:48;99877.63;;;2.15;76.55
50710;BME280;37033;49.994;21.992;2023-04-28T05:28:19;99877.62;;;2.33;77.00
50710;BME280;37033;49.994;21.992;2023-04-28T05:30:50;99877.72;;;2.50;77.00
50710;BME280;37033;49.994;21.992;2023-04-28T05:33:21;99875.73;;;2.71;76.83
50710;BME280;37033;49.994;21.992;2023-04-28T05:35:52;99872.51;;;2.91;76.90
50710;BME280;37033;49.994;21.992;2023-04-28T05:38:23;99871.94;;;3.11;76.92
50710;BME280;37033;49.994;21.992;2023-04-28T05:40:54;99875.64;;;3.33;77.34
50710;BME280;37033;49.994;21.992;2023-04-28T05:43:25;99874.00;;;3.56;77.15
50710;BME280;37033;49.994;21.992;2023-04-28T05:45:56;99877.70;;;3.77;76.77
50710;BME280;37033;49.994;21.992;2023-04-28T05:48:26;99874.59;;;3.97;76.39
50710;BME280;37033;49.994;21.992;2023-04-28T05:50:57;99878.02;;;4.19;76.57
50710;BME280;37033;49.994;21.992;2023-04-28T05:53:28;99875.59;;;4.41;76.54
50710;BME280;37033;49.994;21.992;2023-04-28T05:55:59;99872.46;;;4.61;76.26
50710;BME280;37033;49.994;21.992;2023-04-28T05:58:29;99875.67;;;4.83;75.97
50710;BME280;37033;49.994;21.992;2023-04-28T06:01:01;99871.93;;;5.04;75.68
50710;BME280;37033;49.994;21.992;2023-04-28T06:03:32;99876.25;;;5.25;75.34
50710;BME280;37033;49.994;21.992;2023-04-28T06:06:03;99876.05;;;5.47;75.38
50710;BME280;37033;49.994;21.992;2023-04-28T06:08:33;99875.02;;;5.69;75.15
50710;BME280;37033;49.994;21.992;2023-04-28T06:11:05;99869.17;;;5.93;74.97
50710;BME280;37033;49.994;21.992;2023-04-28T06:13:35;99870.70;;;6.18;74.57
50710;BME280;37033;49.994;21.992;2023-04-28T06:16:07;99869.54;;;6.42;74.17
50710;BME280;37033;49.994;21.992;2023-04-28T06:18:38;99865.58;;;6.65;73.60
50710;BME280;37033;49.994;21.992;2023-04-28T06:21:08;99869.48;;;6.86;72.84
50710;BME280;37033;49.994;21.992;2023-04-28T06:23:39;99861.48;;;7.07;72.50
50710;BME280;37033;49.994;21.992;2023-04-28T06:26:10;99864.40;;;7.28;71.99
50710;BME280;37033;49.994;21.992;2023-04-28T06:28:41;99859.40;;;7.48;71.70
50710;BME280;37033;49.994;21.992;2023-04-28T06:31:12;99859.62;;;7.68;71.28
50710;BME280;37033;49.994;21.992;2023-04-28T06:33:43;99866.23;;;7.87;70.37
50710;BME280;37033;49.994;21.992;2023-04-28T06:36:13;99865.80;;;8.08;70.46
50710;BME280;37033;49.994;21.992;2023-04-28T06:38:46;99865.94;;;8.28;69.74
50710;BME280;37033;49.994;21.992;2023-04-28T06:41:16;99867.55;;;8.49;69.66
50710;BME280;37033;49.994;21.992;2023-04-28T06:43:47;99869.40;;;8.69;68.85
50710;BME280;37033;49.994;21.992;2023-04-28T06:46:19;99866.81;;;8.90;68.47
50710;BME280;37033;49.994;21.992;2023-04-28T06:48:49;99868.81;;;9.09;68.40
50710;BME280;37033;49.994;21.992;2023-04-28T06:51:20;99871.27;;;9.31;67.51
50710;BME280;37033;49.994;21.992;2023-04-28T06:53:51;99869.98;;;9.45;66.63
50710;BME280;37033;49.994;21.992;2023-04-28T06:56:22;99868.95;;;9.57;66.41
50710;BME280;37033;49.994;21.992;2023-04-28T06:58:55;99864.39;;;9.71;64.88
50710;BME280;37033;49.994;21.992;2023-04-28T07:01:27;99865.08;;;9.83;64.11
50710;BME280;37033;49.994;21.992;2023-04-28T07:03:58;99864.41;;;9.97;64.58
50710;BME280;37033;49.994;21.992;2023-04-28T07:06:28;99865.14;;;10.14;63.47
50710;BME280;37033;49.994;21.992;2023-04-28T07:09:00;99865.15;;;10.29;64.10
50710;BME280;37033;49.994;21.992;2023-04-28T07:11:31;99867.11;;;10.50;63.53
50710;BME280;37033;49.994;21.992;2023-04-28T07:14:02;99866.55;;;10.71;62.29
50710;BME280;37033;49.994;21.992;2023-04-28T07:16:33;99863.93;;;10.89;61.95
50710;BME280;37033;49.994;21.992;2023-04-28T07:19:04;99863.85;;;10.99;59.09
50710;BME280;37033;49.994;21.992;2023-04-28T07:21:34;99860.32;;;11.01;59.92
50710;BME280;37033;49.994;21.992;2023-04-28T07:24:06;99859.14;;;11.10;60.40
50710;BME280;37033;49.994;21.992;2023-04-28T07:26:37;99857.30;;;11.22;58.88
50710;BME280;37033;49.994;21.992;2023-04-28T07:29:07;99858.36;;;11.32;59.37
50710;BME280;37033;49.994;21.992;2023-04-28T07:31:38;99859.89;;;11.54;59.04
50710;BME280;37033;49.994;21.992;2023-04-28T07:34:09;99854.73;;;11.75;58.28
50710;BME280;37033;49.994;21.992;2023-04-28T07:36:40;99847.52;;;11.90;56.86
50710;BME280;37033;49.994;21.992;2023-04-28T07:39:11;99848.95;;;11.98;55.68
50710;BME280;37033;49.994;21.992;2023-04-28T07:41:42;99848.89;;;11.99;54.54
50710;BME280;37033;49.994;21.992;2023-04-28T07:44:12;99843.82;;;12.07;55.47
50710;BME280;37033;49.994;21.992;2023-04-28T07:46:43;99842.16;;;12.28;53.68
50710;BME280;37033;49.994;21.992;2023-04-28T07:49:14;99842.13;;;12.33;52.42
50710;BME280;37033;49.994;21.992;2023-04-28T07:51:45;99836.88;;;12.41;53.36
50710;BME280;37033;49.994;21.992;2023-04-28T07:54:15;99835.75;;;12.59;53.58
50710;BME280;37033;49.994;21.992;2023-04-28T07:56:46;99837.25;;;12.84;52.45
50710;BME280;37033;49.994;21.992;2023-04-28T07:59:17;99834.97;;;12.97;52.32
50710;BME280;37033;49.994;21.992;2023-04-28T08:01:48;99834.73;;;13.12;51.47
50710;BME280;37033;49.994;21.992;2023-04-28T08:04:18;99833.09;;;13.30;51.61
50710;BME280;37033;49.994;21.992;2023-04-28T08:06:50;99828.59;;;13.53;50.10
50710;BME280;37033;49.994;21.992;2023-04-28T08:09:20;99826.95;;;13.60;45.39
50710;BME280;37033;49.994;21.992;2023-04-28T08:11:52;99822.27;;;13.57;44.76
50710;BME280;37033;49.994;21.992;2023-04-28T08:14:22;99824.48;;;13.68;45.94
50710;BME280;37033;49.994;21.992;2023-04-28T08:16:59;99816.11;;;13.87;45.89
50710;BME280;37033;49.994;21.992;2023-04-28T08:19:32;99819.19;;;14.03;44.42
50710;BME280;37033;49.994;21.992;2023-04-28T08:22:03;99816.98;;;14.11;43.35
50710;BME280;37033;49.994;21.992;2023-04-28T08:24:35;99820.64;;;14.20;43.99
50710;BME280;37033;49.994;21.992;2023-04-28T08:27:06;99816.45;;;14.26;42.34
50710;BME280;37033;49.994;21.992;2023-04-28T08:29:36;99814.08;;;14.20;41.89
50710;BME280;37033;49.994;21.992;2023-04-28T08:32:08;99815.52;;;14.30;42.79
50710;BME280;37033;49.994;21.992;2023-04-28T08:34:39;99812.67;;;14.45;43.17
50710;BME280;37033;49.994;21.992;2023-04-28T08:37:10;99808.59;;;14.55;41.69
50710;BME280;37033;49.994;21.992;2023-04-28T08:39:40;99799.18;;;14.60;40.22
50710;BME280;37033;49.994;21.992;2023-04-28T08:42:12;99799.89;;;14.55;40.64
50710;BME280;37033;49.994;21.992;2023-04-28T08:44:49;99805.02;;;14.59;41.98
50710;BME280;37033;49.994;21.992;2023-04-28T08:47:22;99799.54;;;14.80;41.95
50710;BME280;37033;49.994;21.992;2023-04-28T08:49:55;99801.33;;;15.01;40.97
50710;BME280;37033;49.994;21.992;2023-04-28T08:52:26;99798.23;;;15.06;39.93
50710;BME280;37033;49.994;21.992;2023-04-28T08:55:06;99794.36;;;15.13;42.06
50710;BME280;37033;49.994;21.992;2023-04-28T08:57:44;99794.20;;;15.44;41.20
50710;BME280;37033;49.994;21.992;2023-04-28T09:00:14;99794.67;;;15.65;41.92
50710;BME280;37033;49.994;21.992;2023-04-28T09:02:45;99790.64;;;15.86;41.18
50710;BME280;37033;49.994;21.992;2023-04-28T09:05:18;99786.85;;;16.12;41.81
50710;BME280;37033;49.994;21.992;2023-04-28T09:07:49;99783.50;;;16.42;39.37
50710;BME280;37033;49.994;21.992;2023-04-28T09:10:22;99785.09;;;16.39;39.42
50710;BME280;37033;49.994;21.992;2023-04-28T09:12:54;99782.70;;;16.54;39.49
50710;BME280;37033;49.994;21.992;2023-04-28T09:15:31;99788.29;;;17.00;40.78
50710;BME280;37033;49.994;21.992;2023-04-28T09:18:06;99781.07;;;17.36;39.90
50710;BME280;37033;49.994;21.992;2023-04-28T09:20:37;99778.38;;;17.33;37.66
50710;BME280;37033;49.994;21.992;2023-04-28T09:23:15;99779.17;;;17.49;38.16
50710;BME280;37033;49.994;21.992;2023-04-28T09:26:00;99774.77;;;17.54;36.13
50710;BME280;37033;49.994;21.992;2023-04-28T09:28:32;99776.25;;;17.54;37.34
50710;BME280;37033;49.994;21.992;2023-04-28T09:31:07;99776.94;;;17.67;36.38
50710;BME280;37033;49.994;21.992;2023-04-28T09:33:59;99773.92;;;17.65;35.87
50710;BME280;37033;49.994;21.992;2023-04-28T09:36:31;99767.15;;;17.93;36.19
50710;BME280;37033;49.994;21.992;2023-04-28T09:39:02;99761.79;;;18.02;35.64
50710;BME280;37033;49.994;21.992;2023-04-28T09:41:43;99758.63;;;18.03;34.72
50710;BME280;37033;49.994;21.992;2023-04-28T09:44:18;99756.68;;;18.09;36.27
50710;BME280;37033;49.994;21.992;2023-04-28T09:46:57;99758.98;;;18.33;36.37
50710;BME280;37033;49.994;21.992;2023-04-28T09:49:29;99754.30;;;18.53;35.95
50710;BME280;37033;49.994;21.992;2023-04-28T09:52:13;99752.50;;;18.65;34.40
50710;BME280;37033;49.994;21.992;2023-04-28T09:54:44;99751.04;;;18.87;35.89
50710;BME280;37033;49.994;21.992;2023-04-28T09:57:17;99748.42;;;19.06;35.14
50710;BME280;37033;49.994;21.992;2023-04-28T09:59:52;99746.70;;;19.13;33.75
50710;BME280;37033;49.994;21.992;2023-04-28T10:02:23;99744.99;;;18.93;34.23
50710;BME280;37033;49.994;21.992;2023-04-28T10:04:54;99739.73;;;18.63;33.26
50710;BME280;37033;49.994;21.992;2023-04-28T10:07:26;99734.85;;;18.25;31.94
50710;BME280;37033;49.994;21.992;2023-04-28T10:09:59;99734.43;;;17.88;33.40
50710;BME280;37033;49.994;21.992;2023-04-28T10:12:30;99731.33;;;17.79;33.69
50710;BME280;37033;49.994;21.992;2023-04-28T10:15:05;99729.65;;;17.89;35.02
50710;BME280;37033;49.994;21.992;2023-04-28T10:17:37;99730.97;;;18.33;34.21
50710;BME280;37033;49.994;21.992;2023-04-28T10:20:15;99728.67;;;18.38;32.03
50710;BME280;37033;49.994;21.992;2023-04-28T10:23:01;99728.40;;;18.30;33.53
50710;BME280;37033;49.994;21.992;2023-04-28T10:25:39;99721.39;;;18.42;33.54
50710;BME280;37033;49.994;21.992;2023-04-28T10:28:12;99720.41;;;18.58;33.37
50710;BME280;37033;49.994;21.992;2023-04-28T10:31:12;99717.48;;;18.82;32.71
50710;BME280;37033;49.994;21.992;2023-04-28T10:33:45;99712.21;;;19.11;33.88
50710;BME280;37033;49.994;21.992;2023-04-28T10:39:14;99701.54;;;19.61;33.49
50710;BME280;37033;49.994;21.992;2023-04-28T10:41:45;99695.94;;;19.68;31.79
50710;BME280;37033;49.994;21.992;2023-04-28T10:44:42;99692.67;;;19.50;32.26
50710;BME280;37033;49.994;21.992;2023-04-28T10:47:16;99695.09;;;19.37;30.44
50710;BME280;37033;49.994;21.992;2023-04-28T10:50:09;99685.64;;;19.43;32.28
50710;BME280;37033;49.994;21.992;2023-04-28T10:52:52;99677.73;;;19.54;29.04
50710;BME280;37033;49.994;21.992;2023-04-28T10:55:35;99677.95;;;19.02;29.70
50710;BME280;37033;49.994;21.992;2023-04-28T10:58:33;99669.52;;;19.05;31.49
50710;BME280;37033;49.994;21.992;2023-04-28T11:01:25;99669.16;;;19.19;30.79
50710;BME280;37033;49.994;21.992;2023-04-28T11:04:04;99667.48;;;19.09;31.44
50710;BME280;37033;49.994;21.992;2023-04-28T11:06:40;99660.84;;;19.43;31.77
50710;BME280;37033;49.994;21.992;2023-04-28T11:12:14;99655.57;;;19.58;31.14
50710;BME280;37033;49.994;21.992;2023-04-28T11:14:47;99657.59;;;19.70;29.77
50710;BME280;37033;49.994;21.992;2023-04-28T11:17:19;99644.50;;;19.49;29.54
50710;BME280;37033;49.994;21.992;2023-04-28T11:20:13;99638.11;;;19.47;29.37
50710;BME280;37033;49.994;21.992;2023-04-28T11:22:47;99636.70;;;19.55;30.24
50710;BME280;37033;49.994;21.992;2023-04-28T11:25:21;99637.49;;;19.67;30.27
50710;BME280;37033;49.994;21.992;2023-04-28T11:27:52;99635.92;;;19.78;31.19
50710;BME280;37033;49.994;21.992;2023-04-28T11:30:23;99631.60;;;20.19;31.77
50710;BME280;37033;49.994;21.992;2023-04-28T11:32:57;99630.70;;;20.55;30.61
50710;BME280;37033;49.994;21.992;2023-04-28T11:35:41;99624.63;;;20.71;31.54
50710;BME280;37033;49.994;21.992;2023-04-28T11:38:15;99620.98;;;21.31;30.75
50710;BME280;37033;49.994;21.992;2023-04-28T11:40:57;99614.89;;;21.37;27.44
50710;BME280;37033;49.994;21.992;2023-04-28T11:43:30;99615.66;;;21.09;28.10
50710;BME280;37033;49.994;21.992;2023-04-28T11:46:01;99611.29;;;20.92;27.98
50710;BME280;37033;49.994;21.992;2023-04-28T11:48:32;99605.55;;;20.67;27.50
50710;BME280;37033;49.994;21.992;2023-04-28T11:51:03;99609.61;;;20.34;27.51
50710;BME280;37033;49.994;21.992;2023-04-28T11:53:43;99602.64;;;19.99;27.61
50710;BME280;37033;49.994;21.992;2023-04-28T11:56:14;99601.27;;;19.78;27.94
50710;BME280;37033;49.994;21.992;2023-04-28T11:58:44;99597.70;;;19.67;28.88
50710;BME280;37033;49.994;21.992;2023-04-28T12:01:18;99591.80;;;19.69;28.40
50710;BME280;37033;49.994;21.992;2023-04-28T12:03:49;99591.47;;;19.65;28.44
50710;BME280;37033;49.994;21.992;2023-04-28T12:06:20;99590.27;;;19.63;28.78
50710;BME280;37033;49.994;21.992;2023-04-28T12:08:51;99582.79;;;19.79;29.75
50710;BME280;37033;49.994;21.992;2023-04-28T12:11:22;99584.35;;;20.22;29.32
50710;BME280;37033;49.994;21.992;2023-04-28T12:14:07;99578.60;;;20.39;29.00
50710;BME280;37033;49.994;21.992;2023-04-28T12:16:40;99581.04;;;20.58;29.52
50710;BME280;37033;49.994;21.992;2023-04-28T12:19:13;99578.36;;;20.86;30.16
50710;BME280;37033;49.994;21.992;2023-04-28T12:21:56;99571.58;;;21.13;29.13
50710;BME280;37033;49.994;21.992;2023-04-28T12:24:34;99568.17;;;21.39;29.50
50710;BME280;37033;49.994;21.992;2023-04-28T12:27:18;99565.67;;;21.37;28.12
50710;BME280;37033;49.994;21.992;2023-04-28T12:29:53;99560.20;;;21.29;28.94
50710;BME280;37033;49.994;21.992;2023-04-28T12:32:41;99553.26;;;21.36;28.95
50710;BME280;37033;49.994;21.992;2023-04-28T12:35:12;99549.85;;;21.51;28.17
50710;BME280;37033;49.994;21.992;2023-04-28T12:37:46;99548.86;;;21.50;26.22
50710;BME280;37033;49.994;21.992;2023-04-28T12:40:20;99544.48;;;20.94;25.55
50710;BME280;37033;49.994;21.992;2023-04-28T12:42:51;99540.19;;;20.59;26.65
50710;BME280;37033;49.994;21.992;2023-04-28T12:45:22;99537.81;;;20.47;25.84
50710;BME280;37033;49.994;21.992;2023-04-28T12:47:58;99533.92;;;20.37;27.30
50710;BME280;37033;49.994;21.992;2023-04-28T12:50:31;99529.67;;;20.61;27.53
50710;BME280;37033;49.994;21.992;2023-04-28T12:53:02;99528.86;;;20.73;27.77
50710;BME280;37033;49.994;21.992;2023-04-28T12:55:35;99522.43;;;20.84;27.42
50710;BME280;37033;49.994;21.992;2023-04-28T12:58:10;99520.48;;;20.89;26.74
50710;BME280;37033;49.994;21.992;2023-04-28T13:00:45;99517.53;;;20.79;26.91
50710;BME280;37033;49.994;21.992;2023-04-28T13:03:19;99515.05;;;20.84;27.20
50710;BME280;37033;49.994;21.992;2023-04-28T13:05:51;99513.95;;;21.01;27.64
50710;BME280;37033;49.994;21.992;2023-04-28T13:08:22;99514.14;;;21.16;27.00
50710;BME280;37033;49.994;21.992;2023-04-28T13:10:55;99510.70;;;21.11;26.71
50710;BME280;37033;49.994;21.992;2023-04-28T13:13:26;99509.94;;;20.94;25.84
50710;BME280;37033;49.994;21.992;2023-04-28T13:16:00;99502.83;;;20.79;25.13
50710;BME280;37033;49.994;21.992;2023-04-28T13:18:31;99499.99;;;20.47;25.98
50710;BME280;37033;49.994;21.992;2023-04-28T13:21:01;99495.02;;;20.63;27.29
50710;BME280;37033;49.994;21.992;2023-04-28T13:23:38;99491.41;;;20.98;27.21
50710;BME280;37033;49.994;21.992;2023-04-28T13:26:09;99490.91;;;21.06;26.95
50710;BME280;37033;49.994;21.992;2023-04-28T13:28:45;99487.73;;;21.01;26.52